sensor_id;sensor_type;location;lat;lon;timestamp;temperature;humidity
78467;SHT31;67759;51.972;5.650;2023-06-10T00:02:16;27.5;35.5
78467;SHT31;67759;51.972;5.650;2023-06-10T00:04:48;27.4;35.7
78467;SHT31;67759;51.972;5.650;2023-06-10T00:07:18;27.3;35.4
78467;SHT31;67759;51.972;5.650;2023-06-10T00:09:48;27.2;35.7
78467;SHT31;67759;51.972;5.650;2023-06-10T00:12:18;27.2;36.1
78467;SHT31;67759;51.972;5.650;2023-06-10T00:14:48;27.1;36.0
78467;SHT31;67759;51.972;5.650;2023-06-10T00:17:21;27.1;36.0
78467;SHT31;67759;51.972;5.650;2023-06-10T00:19:54;27.1;36.4
78467;SHT31;67759;51.972;5.650;2023-06-10T00:22:24;27.0;36.3
78467;SHT31;67759;51.972;5.650;2023-06-10T00:25:00;27.0;36.3
78467;SHT31;67759;51.972;5.650;2023-06-10T00:27:31;27.0;36.2
78467;SHT31;67759;51.972;5.650;2023-06-10T00:30:04;27.0;36.5
78467;SHT31;67759;51.972;5.650;2023-06-10T00:32:35;27.0;36.0
78467;SHT31;67759;51.972;5.650;2023-06-10T00:35:05;27.0;36.2
78467;SHT31;67759;51.972;5.650;2023-06-10T00:37:36;26.9;35.7
78467;SHT31;67759;51.972;5.650;2023-06-10T00:40:09;26.9;35.9
78467;SHT31;67759;51.972;5.650;2023-06-10T00:42:38;26.8;36.0
78467;SHT31;67759;51.972;5.650;2023-06-10T00:45:09;26.8;36.0
78467;SHT31;67759;51.972;5.650;2023-06-10T00:47:39;26.7;36.0
78467;SHT31;67759;51.972;5.650;2023-06-10T00:50:09;26.7;36.1
78467;SHT31;67759;51.972;5.650;2023-06-10T00:52:40;26.6;35.8
78467;SHT31;67759;51.972;5.650;2023-06-10T00:55:12;26.6;36.0
78467;SHT31;67759;51.972;5.650;2023-06-10T00:57:41;26.5;35.7
78467;SHT31;67759;51.972;5.650;2023-06-10T01:00:12;26.5;35.9
78467;SHT31;67759;51.972;5.650;2023-06-10T01:02:43;26.5;36.0
78467;SHT31;67759;51.972;5.650;2023-06-10T01:05:13;26.4;35.8
78467;SHT31;67759;51.972;5.650;2023-06-10T01:07:52;26.4;35.9
78467;SHT31;67759;51.972;5.650;2023-06-10T01:10:29;26.4;35.4
78467;SHT31;67759;51.972;5.650;2023-06-10T01:13:05;26.4;35.8
78467;SHT31;67759;51.972;5.650;2023-06-10T01:15:39;26.4;35.8
78467;SHT31;67759;51.972;5.650;2023-06-10T01:18:10;26.4;36.1
78467;SHT31;67759;51.972;5.650;2023-06-10T01:20:44;26.4;35.9
78467;SHT31;67759;51.972;5.650;2023-06-10T01:23:15;26.5;35.8
78467;SHT31;67759;51.972;5.650;2023-06-10T01:25:49;26.6;35.5
78467;SHT31;67759;51.972;5.650;2023-06-10T01:28:28;26.6;35.2
78467;SHT31;67759;51.972;5.650;2023-06-10T01:31:09;26.6;35.3
78467;SHT31;67759;51.972;5.650;2023-06-10T01:33:47;26.6;35.3
78467;SHT31;67759;51.972;5.650;2023-06-10T01:36:19;26.7;35.0
78467;SHT31;67759;51.972;5.650;2023-06-10T01:38:50;26.7;34.7
78467;SHT31;67759;51.972;5.650;2023-06-10T01:41:22;26.7;34.6
78467;SHT31;67759;51.972;5.650;2023-06-10T01:43:53;26.7;34.5
78467;SHT31;67759;51.972;5.650;2023-06-10T01:46:23;26.6;34.6
78467;SHT31;67759;51.972;5.650;2023-06-10T01:48:53;26.6;34.7
78467;SHT31;67759;51.972;5.650;2023-06-10T01:51:23;26.5;34.7
78467;SHT31;67759;51.972;5.650;2023-06-10T01:53:52;26.4;34.6
78467;SHT31;67759;51.972;5.650;2023-06-10T01:56:22;26.3;35.2
78467;SHT31;67759;51.972;5.650;2023-06-10T01:58:54;26.3;34.9
78467;SHT31;67759;51.972;5.650;2023-06-10T02:01:27;26.2;35.2
78467;SHT31;67759;51.972;5.650;2023-06-10T02:03:57;26.2;35.1
78467;SHT31;67759;51.972;5.650;2023-06-10T02:06:26;26.1;35.3
78467;SHT31;67759;51.972;5.650;2023-06-10T02:08:56;26.1;35.3
78467;SHT31;67759;51.972;5.650;2023-06-10T02:11:25;26.0;35.4
78467;SHT31;67759;51.972;5.650;2023-06-10T02:13:56;25.9;35.2
78467;SHT31;67759;51.972;5.650;2023-06-10T02:16:26;25.9;35.5
78467;SHT31;67759;51.972;5.650;2023-06-10T02:18:57;25.8;35.2
78467;SHT31;67759;51.972;5.650;2023-06-10T02:21:28;25.8;35.5
78467;SHT31;67759;51.972;5.650;2023-06-10T02:23:57;25.8;35.8
78467;SHT31;67759;51.972;5.650;2023-06-10T02:26:27;25.7;35.7
78467;SHT31;67759;51.972;5.650;2023-06-10T02:28:59;25.7;35.9
78467;SHT31;67759;51.972;5.650;2023-06-10T02:31:28;25.7;35.8
78467;SHT31;67759;51.972;5.650;2023-06-10T02:34:01;25.6;36.1
78467;SHT31;67759;51.972;5.650;2023-06-10T02:36:31;25.6;36.1
78467;SHT31;67759;51.972;5.650;2023-06-10T02:39:03;25.6;36.3
78467;SHT31;67759;51.972;5.650;2023-06-10T02:41:35;25.6;35.5
78467;SHT31;67759;51.972;5.650;2023-06-10T02:44:05;25.6;36.1
78467;SHT31;67759;51.972;5.650;2023-06-10T02:46:35;25.5;36.4
78467;SHT31;67759;51.972;5.650;2023-06-10T02:49:04;25.5;36.5
78467;SHT31;67759;51.972;5.650;2023-06-10T02:51:34;25.5;36.7
78467;SHT31;67759;51.972;5.650;2023-06-10T02:54:04;25.4;36.3
78467;SHT31;67759;51.972;5.650;2023-06-10T02:56:34;25.4;37.0
78467;SHT31;67759;51.972;5.650;2023-06-10T02:59:04;25.4;37.1
78467;SHT31;67759;51.972;5.650;2023-06-10T03:01:34;25.4;36.9
78467;SHT31;67759;51.972;5.650;2023-06-10T03:04:05;25.4;37.2
78467;SHT31;67759;51.972;5.650;2023-06-10T03:06:35;25.4;37.1
78467;SHT31;67759;51.972;5.650;2023-06-10T03:09:08;25.3;37.0
78467;SHT31;67759;51.972;5.650;2023-06-10T03:11:37;25.3;37.3
78467;SHT31;67759;51.972;5.650;2023-06-10T03:14:09;25.3;37.4
78467;SHT31;67759;51.972;5.650;2023-06-10T03:16:38;25.2;37.6
78467;SHT31;67759;51.972;5.650;2023-06-10T03:19:10;25.2;37.8
78467;SHT31;67759;51.972;5.650;2023-06-10T03:21:44;25.1;38.0
78467;SHT31;67759;51.972;5.650;2023-06-10T03:24:14;25.1;38.0
78467;SHT31;67759;51.972;5.650;2023-06-10T03:26:44;25.1;38.2
78467;SHT31;67759;51.972;5.650;2023-06-10T03:29:13;25.0;38.3
78467;SHT31;67759;51.972;5.650;2023-06-10T03:31:43;25.0;38.3
78467;SHT31;67759;51.972;5.650;2023-06-10T03:34:14;25.0;38.3
78467;SHT31;67759;51.972;5.650;2023-06-10T03:36:43;24.9;38.3
78467;SHT31;67759;51.972;5.650;2023-06-10T03:39:13;24.9;38.6
78467;SHT31;67759;51.972;5.650;2023-06-10T03:41:43;25.0;38.7
78467;SHT31;67759;51.972;5.650;2023-06-10T03:44:13;25.0;38.6
78467;SHT31;67759;51.972;5.650;2023-06-10T03:46:43;25.0;38.4
78467;SHT31;67759;51.972;5.650;2023-06-10T03:49:13;25.0;38.4
78467;SHT31;67759;51.972;5.650;2023-06-10T03:51:44;25.0;38.7
78467;SHT31;67759;51.972;5.650;2023-06-10T03:54:14;24.9;38.8
78467;SHT31;67759;51.972;5.650;2023-06-10T03:56:43;24.9;38.9
78467;SHT31;67759;51.972;5.650;2023-06-10T03:59:13;24.9;38.8
78467;SHT31;67759;51.972;5.650;2023-06-10T04:01:42;24.8;38.8
78467;SHT31;67759;51.972;5.650;2023-06-10T04:04:14;24.8;39.4
78467;SHT31;67759;51.972;5.650;2023-06-10T04:06:44;24.8;39.3
78467;SHT31;67759;51.972;5.650;2023-06-10T04:09:16;24.7;39.2
78467;SHT31;67759;51.972;5.650;2023-06-10T04:11:46;24.7;39.1
78467;SHT31;67759;51.972;5.650;2023-06-10T04:14:15;24.7;39.3
78467;SHT31;67759;51.972;5.650;2023-06-10T04:16:45;24.7;39.7
78467;SHT31;67759;51.972;5.650;2023-06-10T04:19:14;24.7;39.7
78467;SHT31;67759;51.972;5.650;2023-06-10T04:21:44;24.7;39.8
78467;SHT31;67759;51.972;5.650;2023-06-10T04:24:13;24.7;40.0
78467;SHT31;67759;51.972;5.650;2023-06-10T04:26:43;24.7;40.1
78467;SHT31;67759;51.972;5.650;2023-06-10T04:29:14;24.7;40.0
78467;SHT31;67759;51.972;5.650;2023-06-10T04:31:44;24.7;39.8
78467;SHT31;67759;51.972;5.650;2023-06-10T04:34:14;24.8;39.7
78467;SHT31;67759;51.972;5.650;2023-06-10T04:36:43;24.8;39.8
78467;SHT31;67759;51.972;5.650;2023-06-10T04:39:13;24.8;40.0
78467;SHT31;67759;51.972;5.650;2023-06-10T04:41:44;24.9;39.5
78467;SHT31;67759;51.972;5.650;2023-06-10T04:44:13;25.0;39.5
78467;SHT31;67759;51.972;5.650;2023-06-10T04:46:43;25.1;39.3
78467;SHT31;67759;51.972;5.650;2023-06-10T04:49:13;25.1;39.3
78467;SHT31;67759;51.972;5.650;2023-06-10T04:51:43;25.1;39.0
78467;SHT31;67759;51.972;5.650;2023-06-10T04:54:12;25.1;39.6
78467;SHT31;67759;51.972;5.650;2023-06-10T04:56:43;25.1;39.4
78467;SHT31;67759;51.972;5.650;2023-06-10T04:59:14;25.1;39.2
78467;SHT31;67759;51.972;5.650;2023-06-10T05:01:43;25.2;39.8
78467;SHT31;67759;51.972;5.650;2023-06-10T05:04:13;25.2;39.9
78467;SHT31;67759;51.972;5.650;2023-06-10T05:06:45;25.2;39.6
78467;SHT31;67759;51.972;5.650;2023-06-10T05:09:15;25.3;39.7
78467;SHT31;67759;51.972;5.650;2023-06-10T05:11:45;25.3;39.7
78467;SHT31;67759;51.972;5.650;2023-06-10T05:14:14;25.4;39.7
78467;SHT31;67759;51.972;5.650;2023-06-10T05:16:46;25.4;39.4
78467;SHT31;67759;51.972;5.650;2023-06-10T05:19:16;25.5;39.0
78467;SHT31;67759;51.972;5.650;2023-06-10T05:21:45;25.5;39.5
78467;SHT31;67759;51.972;5.650;2023-06-10T05:24:15;25.6;39.8
78467;SHT31;67759;51.972;5.650;2023-06-10T05:26:45;25.6;39.8
78467;SHT31;67759;51.972;5.650;2023-06-10T05:29:16;25.7;39.2
78467;SHT31;67759;51.972;5.650;2023-06-10T05:31:45;25.8;39.4
78467;SHT31;67759;51.972;5.650;2023-06-10T05:34:15;25.8;39.3
78467;SHT31;67759;51.972;5.650;2023-06-10T05:36:44;25.9;39.3
78467;SHT31;67759;51.972;5.650;2023-06-10T05:39:14;25.9;39.3
78467;SHT31;67759;51.972;5.650;2023-06-10T05:41:45;25.9;39.4
78467;SHT31;67759;51.972;5.650;2023-06-10T05:44:15;26.0;39.8
78467;SHT31;67759;51.972;5.650;2023-06-10T05:46:45;26.1;39.1
78467;SHT31;67759;51.972;5.650;2023-06-10T05:49:17;26.3;39.2
78467;SHT31;67759;51.972;5.650;2023-06-10T05:51:46;26.5;38.4
78467;SHT31;67759;51.972;5.650;2023-06-10T05:54:19;26.6;38.4
78467;SHT31;67759;51.972;5.650;2023-06-10T05:56:49;26.6;38.5
78467;SHT31;67759;51.972;5.650;2023-06-10T05:59:19;26.7;38.1
78467;SHT31;67759;51.972;5.650;2023-06-10T06:01:50;26.8;38.2
78467;SHT31;67759;51.972;5.650;2023-06-10T06:04:19;26.8;37.9
78467;SHT31;67759;51.972;5.650;2023-06-10T06:06:49;26.9;38.0
78467;SHT31;67759;51.972;5.650;2023-06-10T06:09:18;26.9;37.9
78467;SHT31;67759;51.972;5.650;2023-06-10T06:11:48;27.0;38.1
78467;SHT31;67759;51.972;5.650;2023-06-10T06:14:17;27.1;37.6
78467;SHT31;67759;51.972;5.650;2023-06-10T06:16:47;27.1;36.9
78467;SHT31;67759;51.972;5.650;2023-06-10T06:19:18;27.2;37.3
78467;SHT31;67759;51.972;5.650;2023-06-10T06:21:47;27.2;37.4
78467;SHT31;67759;51.972;5.650;2023-06-10T06:24:17;27.2;37.7
78467;SHT31;67759;51.972;5.650;2023-06-10T06:26:46;27.3;37.5
78467;SHT31;67759;51.972;5.650;2023-06-10T06:29:16;27.3;37.2
78467;SHT31;67759;51.972;5.650;2023-06-10T06:31:46;27.4;37.6
78467;SHT31;67759;51.972;5.650;2023-06-10T06:34:15;27.5;37.3
78467;SHT31;67759;51.972;5.650;2023-06-10T06:36:44;27.6;36.7
78467;SHT31;67759;51.972;5.650;2023-06-10T06:39:16;27.7;37.1
78467;SHT31;67759;51.972;5.650;2023-06-10T06:41:45;27.8;37.0
78467;SHT31;67759;51.972;5.650;2023-06-10T06:44:15;27.9;36.2
78467;SHT31;67759;51.972;5.650;2023-06-10T06:46:44;28.0;36.3
78467;SHT31;67759;51.972;5.650;2023-06-10T06:49:14;28.1;36.2
78467;SHT31;67759;51.972;5.650;2023-06-10T06:51:44;28.2;36.6
78467;SHT31;67759;51.972;5.650;2023-06-10T06:54:13;28.3;36.6
78467;SHT31;67759;51.972;5.650;2023-06-10T06:56:43;28.5;36.3
78467;SHT31;67759;51.972;5.650;2023-06-10T06:59:14;28.8;35.2
78467;SHT31;67759;51.972;5.650;2023-06-10T07:01:48;29.1;35.0
78467;SHT31;67759;51.972;5.650;2023-06-10T07:04:17;29.4;34.8
78467;SHT31;67759;51.972;5.650;2023-06-10T07:06:49;29.7;34.1
78467;SHT31;67759;51.972;5.650;2023-06-10T07:09:18;29.8;33.6
78467;SHT31;67759;51.972;5.650;2023-06-10T07:11:48;30.0;33.7
78467;SHT31;67759;51.972;5.650;2023-06-10T07:14:18;30.1;33.2
78467;SHT31;67759;51.972;5.650;2023-06-10T07:16:47;30.2;32.8
78467;SHT31;67759;51.972;5.650;2023-06-10T07:19:17;30.2;32.3
78467;SHT31;67759;51.972;5.650;2023-06-10T07:21:48;30.3;32.0
78467;SHT31;67759;51.972;5.650;2023-06-10T07:24:18;30.3;32.5
78467;SHT31;67759;51.972;5.650;2023-06-10T07:26:48;30.3;33.6
78467;SHT31;67759;51.972;5.650;2023-06-10T07:29:18;30.4;33.7
78467;SHT31;67759;51.972;5.650;2023-06-10T07:31:48;30.5;33.3
78467;SHT31;67759;51.972;5.650;2023-06-10T07:34:17;30.7;33.4
78467;SHT31;67759;51.972;5.650;2023-06-10T07:36:47;30.9;33.1
78467;SHT31;67759;51.972;5.650;2023-06-10T07:39:16;31.1;32.4
78467;SHT31;67759;51.972;5.650;2023-06-10T07:41:46;31.2;31.8
78467;SHT31;67759;51.972;5.650;2023-06-10T07:44:16;31.4;31.5
78467;SHT31;67759;51.972;5.650;2023-06-10T07:46:46;31.5;31.1
78467;SHT31;67759;51.972;5.650;2023-06-10T07:49:15;31.6;31.6
78467;SHT31;67759;51.972;5.650;2023-06-10T07:51:45;31.7;31.2
78467;SHT31;67759;51.972;5.650;2023-06-10T07:54:15;31.9;31.9
78467;SHT31;67759;51.972;5.650;2023-06-10T07:56:44;32.1;30.8
78467;SHT31;67759;51.972;5.650;2023-06-10T07:59:14;32.3;30.1
78467;SHT31;67759;51.972;5.650;2023-06-10T08:01:44;32.4;30.3
78467;SHT31;67759;51.972;5.650;2023-06-10T08:04:14;32.5;30.5
78467;SHT31;67759;51.972;5.650;2023-06-10T08:06:43;32.7;29.9
78467;SHT31;67759;51.972;5.650;2023-06-10T08:09:13;32.8;29.6
78467;SHT31;67759;51.972;5.650;2023-06-10T08:11:44;32.8;29.5
78467;SHT31;67759;51.972;5.650;2023-06-10T08:14:16;32.9;30.0
78467;SHT31;67759;51.972;5.650;2023-06-10T08:16:45;32.9;30.0
78467;SHT31;67759;51.972;5.650;2023-06-10T08:19:15;33.0;29.0
78467;SHT31;67759;51.972;5.650;2023-06-10T08:21:46;33.0;29.7
78467;SHT31;67759;51.972;5.650;2023-06-10T08:24:16;33.1;28.9
78467;SHT31;67759;51.972;5.650;2023-06-10T08:26:47;33.1;29.6
78467;SHT31;67759;51.972;5.650;2023-06-10T08:29:16;33.2;29.0
78467;SHT31;67759;51.972;5.650;2023-06-10T08:31:46;33.2;29.6
78467;SHT31;67759;51.972;5.650;2023-06-10T08:34:17;33.1;29.6
78467;SHT31;67759;51.972;5.650;2023-06-10T08:36:47;33.0;29.5
78467;SHT31;67759;51.972;5.650;2023-06-10T08:39:21;33.0;29.5
78467;SHT31;67759;51.972;5.650;2023-06-10T08:42:00;32.9;29.6
78467;SHT31;67759;51.972;5.650;2023-06-10T08:44:31;32.8;29.5
78467;SHT31;67759;51.972;5.650;2023-06-10T08:47:10;32.8;29.4
78467;SHT31;67759;51.972;5.650;2023-06-10T08:49:44;32.8;29.2
78467;SHT31;67759;51.972;5.650;2023-06-10T08:52:17;32.8;30.0
78467;SHT31;67759;51.972;5.650;2023-06-10T08:54:52;32.8;30.1
78467;SHT31;67759;51.972;5.650;2023-06-10T08:57:24;32.9;29.6
78467;SHT31;67759;51.972;5.650;2023-06-10T08:59:56;32.9;29.9
78467;SHT31;67759;51.972;5.650;2023-06-10T09:02:27;33.0;28.9
78467;SHT31;67759;51.972;5.650;2023-06-10T09:04:57;33.0;29.1
78467;SHT31;67759;51.972;5.650;2023-06-10T09:07:28;33.0;29.0
78467;SHT31;67759;51.972;5.650;2023-06-10T09:10:02;33.0;29.1
78467;SHT31;67759;51.972;5.650;2023-06-10T09:12:34;33.0;29.1
78467;SHT31;67759;51.972;5.650;2023-06-10T09:15:07;33.1;29.0
78467;SHT31;67759;51.972;5.650;2023-06-10T09:17:37;33.1;29.1
78467;SHT31;67759;51.972;5.650;2023-06-10T09:20:08;33.1;29.2
78467;SHT31;67759;51.972;5.650;2023-06-10T09:22:41;33.1;28.9
78467;SHT31;67759;51.972;5.650;2023-06-10T09:25:12;33.2;28.5
78467;SHT31;67759;51.972;5.650;2023-06-10T09:27:47;33.2;28.4
78467;SHT31;67759;51.972;5.650;2023-06-10T09:30:26;33.2;29.0
78467;SHT31;67759;51.972;5.650;2023-06-10T09:32:58;33.1;29.4
78467;SHT31;67759;51.972;5.650;2023-06-10T09:35:29;33.2;29.0
78467;SHT31;67759;51.972;5.650;2023-06-10T09:38:00;33.2;29.3
78467;SHT31;67759;51.972;5.650;2023-06-10T09:40:32;33.3;28.7
78467;SHT31;67759;51.972;5.650;2023-06-10T09:43:02;33.4;28.6
78467;SHT31;67759;51.972;5.650;2023-06-10T09:45:32;33.5;28.7
78467;SHT31;67759;51.972;5.650;2023-06-10T09:48:02;33.6;29.2
78467;SHT31;67759;51.972;5.650;2023-06-10T09:50:37;33.7;28.9
78467;SHT31;67759;51.972;5.650;2023-06-10T09:53:11;33.8;27.9
78467;SHT31;67759;51.972;5.650;2023-06-10T09:55:42;33.9;28.0
78467;SHT31;67759;51.972;5.650;2023-06-10T09:58:14;33.9;27.9
78467;SHT31;67759;51.972;5.650;2023-06-10T10:00:43;34.0;27.8
78467;SHT31;67759;51.972;5.650;2023-06-10T10:03:24;34.0;28.0
78467;SHT31;67759;51.972;5.650;2023-06-10T10:06:00;34.1;27.5
78467;SHT31;67759;51.972;5.650;2023-06-10T10:08:32;34.1;27.5
78467;SHT31;67759;51.972;5.650;2023-06-10T10:11:02;34.1;27.9
78467;SHT31;67759;51.972;5.650;2023-06-10T10:13:34;34.1;27.5
78467;SHT31;67759;51.972;5.650;2023-06-10T10:16:10;34.1;27.3
78467;SHT31;67759;51.972;5.650;2023-06-10T10:18:46;34.1;26.9
78467;SHT31;67759;51.972;5.650;2023-06-10T10:21:25;34.1;28.2
78467;SHT31;67759;51.972;5.650;2023-06-10T10:24:05;34.0;27.5
78467;SHT31;67759;51.972;5.650;2023-06-10T10:26:38;34.1;27.5
78467;SHT31;67759;51.972;5.650;2023-06-10T10:29:11;34.2;27.3
78467;SHT31;67759;51.972;5.650;2023-06-10T10:31:44;34.3;26.4
78467;SHT31;67759;51.972;5.650;2023-06-10T10:34:21;34.4;25.8
78467;SHT31;67759;51.972;5.650;2023-06-10T10:36:51;34.5;26.1
78467;SHT31;67759;51.972;5.650;2023-06-10T10:39:22;34.6;25.1
78467;SHT31;67759;51.972;5.650;2023-06-10T10:41:53;34.7;24.5
78467;SHT31;67759;51.972;5.650;2023-06-10T10:44:25;34.8;24.1
78467;SHT31;67759;51.972;5.650;2023-06-10T10:46:56;34.8;24.5
78467;SHT31;67759;51.972;5.650;2023-06-10T10:49:30;34.9;24.6
78467;SHT31;67759;51.972;5.650;2023-06-10T10:52:01;35.0;24.4
78467;SHT31;67759;51.972;5.650;2023-06-10T10:54:34;35.1;24.3
78467;SHT31;67759;51.972;5.650;2023-06-10T10:57:18;35.2;24.2
78467;SHT31;67759;51.972;5.650;2023-06-10T10:59:55;35.3;22.9
78467;SHT31;67759;51.972;5.650;2023-06-10T11:02:37;35.3;22.5
78467;SHT31;67759;51.972;5.650;2023-06-10T11:05:12;35.3;22.3
78467;SHT31;67759;51.972;5.650;2023-06-10T11:07:53;35.4;22.2
78467;SHT31;67759;51.972;5.650;2023-06-10T11:10:31;35.4;21.8
78467;SHT31;67759;51.972;5.650;2023-06-10T11:13:06;35.4;23.2
78467;SHT31;67759;51.972;5.650;2023-06-10T11:15:39;35.4;21.8
78467;SHT31;67759;51.972;5.650;2023-06-10T11:18:11;35.5;21.4
78467;SHT31;67759;51.972;5.650;2023-06-10T11:20:51;35.6;21.3
78467;SHT31;67759;51.972;5.650;2023-06-10T11:25:16;35.7;22.2
78467;SHT31;67759;51.972;5.650;2023-06-10T11:27:53;35.9;21.2
78467;SHT31;67759;51.972;5.650;2023-06-10T11:30:27;36.0;21.2
78467;SHT31;67759;51.972;5.650;2023-06-10T11:33:02;36.0;20.8
78467;SHT31;67759;51.972;5.650;2023-06-10T11:35:33;36.0;21.8
78467;SHT31;67759;51.972;5.650;2023-06-10T11:38:04;36.1;21.4
78467;SHT31;67759;51.972;5.650;2023-06-10T11:40:36;36.2;20.1
78467;SHT31;67759;51.972;5.650;2023-06-10T11:43:07;36.2;20.3
78467;SHT31;67759;51.972;5.650;2023-06-10T11:45:36;36.3;20.8
78467;SHT31;67759;51.972;5.650;2023-06-10T11:48:06;36.3;22.1
78467;SHT31;67759;51.972;5.650;2023-06-10T11:50:36;36.3;20.6
78467;SHT31;67759;51.972;5.650;2023-06-10T11:53:08;36.4;20.1
78467;SHT31;67759;51.972;5.650;2023-06-10T11:55:46;36.4;20.9
78467;SHT31;67759;51.972;5.650;2023-06-10T11:58:17;36.3;20.5
78467;SHT31;67759;51.972;5.650;2023-06-10T12:00:49;36.3;21.2
78467;SHT31;67759;51.972;5.650;2023-06-10T12:03:20;36.2;21.4
78467;SHT31;67759;51.972;5.650;2023-06-10T12:05:59;36.2;21.0
78467;SHT31;67759;51.972;5.650;2023-06-10T12:08:31;36.2;21.6
78467;SHT31;67759;51.972;5.650;2023-06-10T12:11:01;36.3;20.9
78467;SHT31;67759;51.972;5.650;2023-06-10T12:13:31;36.3;21.5
78467;SHT31;67759;51.972;5.650;2023-06-10T12:16:09;36.4;21.3
78467;SHT31;67759;51.972;5.650;2023-06-10T12:18:39;36.5;21.0
78467;SHT31;67759;51.972;5.650;2023-06-10T12:21:17;36.6;21.1
78467;SHT31;67759;51.972;5.650;2023-06-10T12:24:07;36.7;21.2
78467;SHT31;67759;51.972;5.650;2023-06-10T12:26:40;36.8;20.6
78467;SHT31;67759;51.972;5.650;2023-06-10T12:29:30;36.9;20.1
78467;SHT31;67759;51.972;5.650;2023-06-10T12:32:02;37.0;20.0
78467;SHT31;67759;51.972;5.650;2023-06-10T12:34:35;37.1;20.3
78467;SHT31;67759;51.972;5.650;2023-06-10T12:37:10;37.1;19.8
78467;SHT31;67759;51.972;5.650;2023-06-10T12:39:52;37.1;20.1
78467;SHT31;67759;51.972;5.650;2023-06-10T12:42:25;37.1;20.3
78467;SHT31;67759;51.972;5.650;2023-06-10T12:44:55;37.1;20.5
78467;SHT31;67759;51.972;5.650;2023-06-10T12:47:32;37.0;20.2
78467;SHT31;67759;51.972;5.650;2023-06-10T12:50:03;37.0;20.5
78467;SHT31;67759;51.972;5.650;2023-06-10T12:52:33;37.0;20.7
78467;SHT31;67759;51.972;5.650;2023-06-10T12:55:03;37.0;21.0
78467;SHT31;67759;51.972;5.650;2023-06-10T12:57:33;37.1;20.6
78467;SHT31;67759;51.972;5.650;2023-06-10T13:00:04;37.1;20.8
78467;SHT31;67759;51.972;5.650;2023-06-10T13:02:36;37.2;20.3
78467;SHT31;67759;51.972;5.650;2023-06-10T13:05:05;37.2;19.9
78467;SHT31;67759;51.972;5.650;2023-06-10T13:07:35;37.3;19.9
78467;SHT31;67759;51.972;5.650;2023-06-10T13:10:05;37.3;19.5
78467;SHT31;67759;51.972;5.650;2023-06-10T13:12:35;37.4;20.4
78467;SHT31;67759;51.972;5.650;2023-06-10T13:15:06;37.6;19.6
78467;SHT31;67759;51.972;5.650;2023-06-10T13:17:35;37.6;19.5
78467;SHT31;67759;51.972;5.650;2023-06-10T13:20:06;37.6;20.2
78467;SHT31;67759;51.972;5.650;2023-06-10T13:22:36;37.6;19.8
78467;SHT31;67759;51.972;5.650;2023-06-10T13:25:06;37.6;19.3
78467;SHT31;67759;51.972;5.650;2023-06-10T13:27:37;37.7;19.2
78467;SHT31;67759;51.972;5.650;2023-06-10T13:30:10;37.7;19.0
78467;SHT31;67759;51.972;5.650;2023-06-10T13:32:42;37.8;18.9
78467;SHT31;67759;51.972;5.650;2023-06-10T13:35:12;37.9;19.5
78467;SHT31;67759;51.972;5.650;2023-06-10T13:37:41;38.0;19.6
78467;SHT31;67759;51.972;5.650;2023-06-10T13:40:12;38.1;19.4
78467;SHT31;67759;51.972;5.650;2023-06-10T13:42:41;38.1;19.0
78467;SHT31;67759;51.972;5.650;2023-06-10T13:45:11;38.0;19.0
78467;SHT31;67759;51.972;5.650;2023-06-10T13:47:41;38.0;19.0
78467;SHT31;67759;51.972;5.650;2023-06-10T13:50:11;38.0;18.9
78467;SHT31;67759;51.972;5.650;2023-06-10T13:52:40;38.0;18.8
78467;SHT31;67759;51.972;5.650;2023-06-10T13:55:10;38.0;18.4
78467;SHT31;67759;51.972;5.650;2023-06-10T13:57:40;38.0;18.3
78467;SHT31;67759;51.972;5.650;2023-06-10T14:00:10;38.0;18.1
78467;SHT31;67759;51.972;5.650;2023-06-10T14:02:40;37.8;18.8
78467;SHT31;67759;51.972;5.650;2023-06-10T14:05:10;37.7;18.2
78467;SHT31;67759;51.972;5.650;2023-06-10T14:07:39;37.7;18.6
78467;SHT31;67759;51.972;5.650;2023-06-10T14:10:10;37.6;19.2
78467;SHT31;67759;51.972;5.650;2023-06-10T14:12:40;37.7;19.2
78467;SHT31;67759;51.972;5.650;2023-06-10T14:15:11;37.8;18.4
78467;SHT31;67759;51.972;5.650;2023-06-10T14:17:42;38.0;19.1
78467;SHT31;67759;51.972;5.650;2023-06-10T14:20:12;38.1;17.9
78467;SHT31;67759;51.972;5.650;2023-06-10T14:22:42;38.3;17.8
78467;SHT31;67759;51.972;5.650;2023-06-10T14:25:13;38.3;17.7
78467;SHT31;67759;51.972;5.650;2023-06-10T14:27:42;38.3;17.9
78467;SHT31;67759;51.972;5.650;2023-06-10T14:30:14;38.3;17.9
78467;SHT31;67759;51.972;5.650;2023-06-10T14:32:44;38.4;17.9
78467;SHT31;67759;51.972;5.650;2023-06-10T14:35:15;38.5;17.7
78467;SHT31;67759;51.972;5.650;2023-06-10T14:37:45;38.6;17.5
78467;SHT31;67759;51.972;5.650;2023-06-10T14:40:14;38.8;16.8
78467;SHT31;67759;51.972;5.650;2023-06-10T14:42:44;39.0;17.0
78467;SHT31;67759;51.972;5.650;2023-06-10T14:45:14;39.3;16.8
78467;SHT31;67759;51.972;5.650;2023-06-10T14:47:44;39.5;17.4
78467;SHT31;67759;51.972;5.650;2023-06-10T14:50:14;39.6;17.4
78467;SHT31;67759;51.972;5.650;2023-06-10T14:52:44;39.8;17.0
78467;SHT31;67759;51.972;5.650;2023-06-10T14:55:13;39.9;17.5
78467;SHT31;67759;51.972;5.650;2023-06-10T14:57:43;40.1;17.2
78467;SHT31;67759;51.972;5.650;2023-06-10T15:00:14;40.3;16.9
78467;SHT31;67759;51.972;5.650;2023-06-10T15:02:47;40.7;17.4
78467;SHT31;67759;51.972;5.650;2023-06-10T15:05:18;41.1;17.0
78467;SHT31;67759;51.972;5.650;2023-06-10T15:07:48;41.3;16.4
78467;SHT31;67759;51.972;5.650;2023-06-10T15:10:17;41.3;16.5
78467;SHT31;67759;51.972;5.650;2023-06-10T15:12:48;41.2;16.5
78467;SHT31;67759;51.972;5.650;2023-06-10T15:15:23;41.2;16.8
78467;SHT31;67759;51.972;5.650;2023-06-10T15:17:53;41.2;16.9
78467;SHT31;67759;51.972;5.650;2023-06-10T15:20:23;41.3;16.7
78467;SHT31;67759;51.972;5.650;2023-06-10T15:22:52;41.5;16.7
78467;SHT31;67759;51.972;5.650;2023-06-10T15:25:23;41.5;16.6
78467;SHT31;67759;51.972;5.650;2023-06-10T15:27:53;41.6;16.8
78467;SHT31;67759;51.972;5.650;2023-06-10T15:30:22;41.7;16.3
78467;SHT31;67759;51.972;5.650;2023-06-10T15:32:52;41.9;16.3
78467;SHT31;67759;51.972;5.650;2023-06-10T15:35:22;42.1;16.0
78467;SHT31;67759;51.972;5.650;2023-06-10T15:37:51;42.2;16.1
78467;SHT31;67759;51.972;5.650;2023-06-10T15:40:21;42.3;16.1
78467;SHT31;67759;51.972;5.650;2023-06-10T15:42:50;42.3;16.0
78467;SHT31;67759;51.972;5.650;2023-06-10T15:45:22;42.3;16.1
78467;SHT31;67759;51.972;5.650;2023-06-10T15:47:51;42.3;16.1
78467;SHT31;67759;51.972;5.650;2023-06-10T15:50:21;42.3;16.2
78467;SHT31;67759;51.972;5.650;2023-06-10T15:52:50;42.3;16.3
78467;SHT31;67759;51.972;5.650;2023-06-10T15:55:20;42.4;16.4
78467;SHT31;67759;51.972;5.650;2023-06-10T15:57:50;42.5;16.6
78467;SHT31;67759;51.972;5.650;2023-06-10T16:00:19;42.8;16.2
78467;SHT31;67759;51.972;5.650;2023-06-10T16:02:49;43.1;15.7
78467;SHT31;67759;51.972;5.650;2023-06-10T16:05:20;43.2;16.1
78467;SHT31;67759;51.972;5.650;2023-06-10T16:07:52;43.4;15.5
78467;SHT31;67759;51.972;5.650;2023-06-10T16:10:22;43.6;15.9
78467;SHT31;67759;51.972;5.650;2023-06-10T16:12:53;43.9;15.8
78467;SHT31;67759;51.972;5.650;2023-06-10T16:15:24;44.1;15.3
78467;SHT31;67759;51.972;5.650;2023-06-10T16:17:54;44.3;15.3
78467;SHT31;67759;51.972;5.650;2023-06-10T16:20:27;44.7;15.1
78467;SHT31;67759;51.972;5.650;2023-06-10T16:22:57;45.0;14.8
78467;SHT31;67759;51.972;5.650;2023-06-10T16:25:28;45.2;14.6
78467;SHT31;67759;51.972;5.650;2023-06-10T16:27:59;45.2;14.6
78467;SHT31;67759;51.972;5.650;2023-06-10T16:30:29;45.4;14.8